createdAt,value
2022-08-27T00:01:55.866Z,100662.22
2022-08-27T00:04:43.559Z,100661.97
2022-08-27T00:07:31.014Z,100670.88
2022-08-27T00:10:20.494Z,100669.72
2022-08-27T00:13:07.613Z,100670.69
2022-08-27T00:15:56.000Z,100676.91
2022-08-27T00:18:48.043Z,100667.91
2022-08-27T00:21:35.205Z,100668.00
2022-08-27T00:24:21.967Z,100663.59
2022-08-27T00:27:08.540Z,100667.13
2022-08-27T00:29:56.107Z,100668.00
2022-08-27T00:32:44.725Z,100663.38
2022-08-27T00:35:31.821Z,100653.41
2022-08-27T00:38:18.820Z,100659.63
2022-08-27T00:41:06.916Z,100655.22
2022-08-27T00:43:57.369Z,100650.63
2022-08-27T00:46:47.301Z,100647.81
2022-08-27T00:49:39.754Z,100637.41
2022-08-27T00:52:30.246Z,100644.81
2022-08-27T00:55:20.543Z,100638.59
2022-08-27T00:58:12.257Z,100646.66
2022-08-27T01:01:01.945Z,100644.28
2022-08-27T01:03:53.707Z,100646.66
2022-08-27T01:06:41.679Z,100641.38
2022-08-27T01:09:29.643Z,100641.06
2022-08-27T01:12:19.050Z,100632.91
2022-08-27T01:15:22.184Z,100626.47
2022-08-27T01:18:13.420Z,100629.03
2022-08-27T01:21:07.753Z,100637.72
2022-08-27T01:24:14.718Z,100632.91
2022-08-27T01:27:04.768Z,100643.00
2022-08-27T01:29:54.727Z,100641.06
2022-08-27T01:32:42.328Z,100645.56
2022-08-27T01:35:29.118Z,100644.50
2022-08-27T01:38:18.970Z,100642.47
2022-08-27T01:41:20.551Z,100641.50
2022-08-27T01:44:08.511Z,100636.78
2022-08-27T01:46:56.938Z,100641.75
2022-08-27T01:49:44.080Z,100639.16
2022-08-27T01:52:31.915Z,100632.25
2022-08-27T01:55:21.787Z,100633.91
2022-08-27T01:58:08.395Z,100636.78
2022-08-27T02:01:05.543Z,100629.69
2022-08-27T02:03:52.497Z,100629.56
2022-08-27T02:06:39.367Z,100629.56
2022-08-27T02:09:26.811Z,100632.16
2022-08-27T02:12:14.215Z,100633.13
2022-08-27T02:15:01.584Z,100634.66
2022-08-27T02:17:49.711Z,100639.28
2022-08-27T02:20:37.381Z,100642.13
2022-08-27T02:23:23.903Z,100640.53
2022-08-27T02:26:11.013Z,100641.38
2022-08-27T02:28:57.597Z,100641.50
2022-08-27T02:31:44.444Z,100645.91
2022-08-27T02:34:32.500Z,100649.56
2022-08-27T02:37:19.204Z,100639.56
2022-08-27T02:40:08.213Z,100646.66
2022-08-27T02:42:54.819Z,100649.91
2022-08-27T02:45:41.412Z,100642.59
2022-08-27T02:48:28.736Z,100643.03
2022-08-27T02:51:16.908Z,100634.84
2022-08-27T02:54:04.916Z,100634.84
2022-08-27T02:56:55.764Z,100614.03
2022-08-27T02:59:43.244Z,100642.81
2022-08-27T03:02:30.208Z,100637.31
2022-08-27T03:05:19.256Z,100642.06
2022-08-27T03:08:08.011Z,100644.84
2022-08-27T03:10:55.256Z,100639.59
2022-08-27T03:13:42.283Z,100645.06
2022-08-27T03:16:29.533Z,100644.31
2022-08-27T03:19:19.810Z,100644.41
2022-08-27T03:22:10.971Z,100644.41
2022-08-27T03:24:58.754Z,100647.13
2022-08-27T03:27:45.639Z,100639.81
2022-08-27T03:30:32.695Z,100642.38
2022-08-27T03:33:19.797Z,100640.56
2022-08-27T03:36:08.801Z,100646.56
2022-08-27T03:38:55.708Z,100634.84
2022-08-27T03:41:55.478Z,100638.81
2022-08-27T03:44:42.418Z,100635.91
2022-08-27T03:47:29.125Z,100631.81
2022-08-27T03:50:15.804Z,100632.25
2022-08-27T03:53:02.576Z,100637.03
2022-08-27T03:55:50.023Z,100638.00
2022-08-27T03:58:38.961Z,100634.81
2022-08-27T04:01:25.626Z,100634.94
2022-08-27T04:04:14.156Z,100632.50
2022-08-27T04:07:01.439Z,100629.78
2022-08-27T04:09:47.905Z,100637.63
2022-08-27T04:12:34.703Z,100634.41
2022-08-27T04:15:22.671Z,100635.16
2022-08-27T04:18:09.417Z,100639.97
2022-08-27T04:20:56.855Z,100631.91
2022-08-27T04:23:43.997Z,100642.00
2022-08-27T04:26:30.908Z,100643.09
2022-08-27T04:29:17.574Z,100631.50
2022-08-27T04:32:06.560Z,100628.63
2022-08-27T04:34:55.611Z,100635.84
2022-08-27T04:37:42.371Z,100635.31
2022-08-27T04:40:49.221Z,100628.06
2022-08-27T04:43:35.653Z,100633.44
2022-08-27T04:46:24.744Z,100633.44
2022-08-27T04:49:16.482Z,100634.63
2022-08-27T04:52:03.507Z,100632.38
2022-08-27T04:54:51.681Z,100642.47
2022-08-27T04:57:38.446Z,100638.06
2022-08-27T05:00:25.447Z,100641.28
2022-08-27T05:03:12.523Z,100646.59
2022-08-27T05:06:07.230Z,100650.72
2022-08-27T05:08:55.041Z,100641.91
2022-08-27T05:11:42.821Z,100643.16
2022-08-27T05:14:32.407Z,100646.38
2022-08-27T05:17:18.885Z,100642.38
2022-08-27T05:20:06.567Z,100646.25
2022-08-27T05:22:55.395Z,100640.34
2022-08-27T05:25:44.296Z,100639.59
2022-08-27T05:28:30.856Z,100643.91
2022-08-27T05:31:19.581Z,100642.94
2022-08-27T05:34:10.254Z,100649.56
2022-08-27T05:36:58.106Z,100647.41
2022-08-27T05:39:46.222Z,100648.59
2022-08-27T05:42:34.451Z,100656.84
2022-08-27T05:45:21.109Z,100657.41
2022-08-27T05:48:07.923Z,100656.91
2022-08-27T05:50:54.780Z,100659.81
2022-08-27T05:53:42.224Z,100661.28
2022-08-27T05:56:32.050Z,100657.75
2022-08-27T05:59:37.384Z,100662.50
2022-08-27T06:02:24.387Z,100664.63
2022-08-27T06:05:10.958Z,100672.69
2022-08-27T06:07:57.386Z,100673.53
2022-08-27T06:10:44.281Z,100672.56
2022-08-27T06:13:33.495Z,100685.03
2022-08-27T06:16:21.130Z,100681.91
2022-08-27T06:19:09.000Z,100683.84
2022-08-27T06:22:01.150Z,100680.50
2022-08-27T06:24:57.288Z,100683.25
2022-08-27T06:27:44.411Z,100690.56
2022-08-27T06:30:32.383Z,100695.72
2022-08-27T06:33:21.376Z,100694.13
2022-08-27T06:36:10.700Z,100689.31
2022-08-27T06:38:58.156Z,100684.97
2022-08-27T06:41:45.127Z,100688.75
2022-08-27T06:44:31.551Z,100690.81
2022-08-27T06:47:21.303Z,100696.94
2022-08-27T06:50:08.557Z,100700.06
2022-08-27T06:52:55.175Z,100696.63
2022-08-27T06:55:43.684Z,100705.84
2022-08-27T06:58:30.228Z,100696.94
2022-08-27T07:01:19.531Z,100698.13
2022-08-27T07:04:10.402Z,100699.19
2022-08-27T07:06:57.301Z,100699.94
2022-08-27T07:09:43.989Z,100698.34
2022-08-27T07:12:30.890Z,100695.53
2022-08-27T07:15:18.429Z,100681.00
2022-08-27T07:18:08.866Z,100698.59
2022-08-27T07:20:58.916Z,100698.53
2022-08-27T07:23:45.623Z,100698.31
2022-08-27T07:26:34.786Z,100705.34
2022-08-27T07:29:21.598Z,100701.69
2022-08-27T07:32:08.139Z,100699.44
2022-08-27T07:34:54.953Z,100701.09
2022-08-27T07:37:43.273Z,100704.25
2022-08-27T07:40:30.117Z,100698.47
2022-08-27T07:43:34.794Z,100692.41
2022-08-27T07:46:21.995Z,100702.78
2022-08-27T07:49:08.481Z,100695.59
2022-08-27T07:51:55.256Z,100690.34
2022-08-27T07:54:43.512Z,100699.28
2022-08-27T07:57:31.630Z,100694.00
2022-08-27T08:00:18.208Z,100696.69
2022-08-27T08:03:05.119Z,100698.13
2022-08-27T08:05:53.388Z,100694.19
2022-08-27T08:08:41.752Z,100700.00
2022-08-27T08:11:32.008Z,100714.63
2022-08-27T08:14:19.524Z,100718.06
2022-08-27T08:17:06.472Z,100722.81
2022-08-27T08:20:18.481Z,100720.56
2022-08-27T08:23:04.598Z,100726.28
2022-08-27T08:25:57.768Z,100726.00
2022-08-27T08:28:46.436Z,100726.19
2022-08-27T08:31:32.828Z,100723.75
2022-08-27T08:34:20.476Z,100718.47
2022-08-27T08:37:07.666Z,100705.25
2022-08-27T08:39:55.105Z,100708.56
2022-08-27T08:42:50.669Z,100704.03
2022-08-27T08:45:43.422Z,100675.97
2022-08-27T08:48:32.457Z,100703.16
2022-08-27T08:51:26.646Z,100694.00
2022-08-27T08:54:17.897Z,100677.22
2022-08-27T08:57:09.292Z,100688.25
2022-08-27T09:00:01.760Z,100685.84
2022-08-27T09:02:54.902Z,100687.78
2022-08-27T09:05:46.910Z,100669.88
2022-08-27T09:08:40.649Z,100640.34
2022-08-27T09:11:35.220Z,100658.25
2022-08-27T09:14:37.083Z,100646.25
2022-08-27T09:17:24.384Z,100645.16
2022-08-27T09:20:14.510Z,100632.28
2022-08-27T09:23:11.883Z,100641.59
2022-08-27T09:25:58.773Z,100655.56
2022-08-27T09:29:03.015Z,100663.28
2022-08-27T09:31:55.683Z,100679.56
2022-08-27T09:34:44.608Z,100676.03
2022-08-27T09:37:34.990Z,100690.84
2022-08-27T09:40:29.763Z,100694.16
2022-08-27T09:43:24.364Z,100707.75
2022-08-27T09:46:20.524Z,100714.09
2022-08-27T09:49:12.434Z,100715.22
2022-08-27T09:51:59.725Z,100725.50
2022-08-27T09:54:48.266Z,100724.41
2022-08-27T09:57:36.988Z,100727.59
2022-08-27T10:00:34.673Z,100736.44
2022-08-27T10:03:23.656Z,100740.81
2022-08-27T10:06:11.089Z,100753.53
2022-08-27T10:09:06.490Z,100742.00
2022-08-27T10:12:01.001Z,100746.38
2022-08-27T10:14:52.501Z,100748.47
2022-08-27T10:17:47.654Z,100739.97
2022-08-27T10:20:44.871Z,100742.16
2022-08-27T10:23:40.986Z,100737.16
2022-08-27T10:26:33.703Z,100748.16
2022-08-27T10:29:34.129Z,100744.34
2022-08-27T10:32:39.151Z,100740.81
2022-08-27T10:35:29.813Z,100745.63
2022-08-27T10:38:22.700Z,100740.22
2022-08-27T10:41:17.544Z,100743.53
2022-08-27T10:44:18.157Z,100748.94
2022-08-27T10:47:18.173Z,100752.78
2022-08-27T10:50:08.477Z,100750.69
2022-08-27T10:53:01.305Z,100750.19
2022-08-27T10:55:52.567Z,100742.66
2022-08-27T10:58:49.931Z,100751.09
2022-08-27T11:01:47.767Z,100749.94
2022-08-27T11:04:40.854Z,100742.06
2022-08-27T11:07:31.840Z,100746.97
2022-08-27T11:10:23.350Z,100737.13
2022-08-27T11:13:15.191Z,100732.38
2022-08-27T11:16:04.019Z,100731.72
2022-08-27T11:18:54.413Z,100728.09
2022-08-27T11:21:47.918Z,100739.47
2022-08-27T11:24:41.445Z,100739.19
2022-08-27T11:27:33.912Z,100734.63
2022-08-27T11:30:25.589Z,100738.41
2022-08-27T11:33:20.372Z,100737.59
2022-08-27T11:36:25.077Z,100731.88
2022-08-27T11:39:25.891Z,100736.41
2022-08-27T11:42:21.222Z,100732.66
2022-08-27T11:45:16.817Z,100740.75
2022-08-27T11:48:16.994Z,100739.44
2022-08-27T11:51:06.998Z,100747.09
2022-08-27T11:53:58.518Z,100745.88
2022-08-27T11:56:46.826Z,100739.94
2022-08-27T11:59:35.376Z,100745.28
2022-08-27T12:02:26.173Z,100748.19
2022-08-27T12:05:26.629Z,100744.91
2022-08-27T12:08:18.849Z,100745.91
2022-08-27T12:11:26.566Z,100740.94
2022-08-27T12:14:32.339Z,100743.88
2022-08-27T12:17:28.022Z,100736.78
2022-08-27T12:20:25.338Z,100747.00
2022-08-27T12:23:36.955Z,100739.31
2022-08-27T12:26:32.795Z,100742.59
2022-08-27T12:29:32.807Z,100741.53
2022-08-27T12:32:27.151Z,100744.44
2022-08-27T12:35:18.519Z,100744.97
2022-08-27T12:38:14.810Z,100749.59
2022-08-27T12:41:05.668Z,100751.03
2022-08-27T12:44:03.156Z,100750.09
2022-08-27T12:46:54.432Z,100741.63
2022-08-27T12:49:46.675Z,100730.81
2022-08-27T12:53:06.598Z,100743.50
2022-08-27T12:56:04.063Z,100740.22
2022-08-27T12:58:57.099Z,100743.00
2022-08-27T13:01:59.742Z,100736.25
2022-08-27T13:04:48.115Z,100731.31
2022-08-27T13:07:41.549Z,100733.31
2022-08-27T13:10:31.663Z,100735.22
2022-08-27T13:13:20.926Z,100726.59
2022-08-27T13:16:07.939Z,100730.75
2022-08-27T13:18:55.939Z,100726.84
2022-08-27T13:21:48.226Z,100730.63
2022-08-27T13:24:37.082Z,100733.97
2022-08-27T13:27:29.939Z,100733.72
2022-08-27T13:30:19.859Z,100734.50
2022-08-27T13:33:25.439Z,100726.13
2022-08-27T13:36:13.396Z,100719.41
2022-08-27T13:39:00.579Z,100717.34
2022-08-27T13:41:50.068Z,100712.44
2022-08-27T13:44:38.708Z,100716.41
2022-08-27T13:47:27.732Z,100712.59
2022-08-27T13:50:22.806Z,100712.56
2022-08-27T13:53:30.284Z,100714.47
2022-08-27T13:56:28.916Z,100721.63
2022-08-27T13:59:24.176Z,100721.56
2022-08-27T14:02:22.840Z,100717.88
2022-08-27T14:05:14.909Z,100714.97
2022-08-27T14:08:14.500Z,100714.38
2022-08-27T14:11:05.337Z,100710.56
2022-08-27T14:13:52.949Z,100713.31
2022-08-27T14:16:39.844Z,100723.63
2022-08-27T14:19:33.307Z,100714.72
2022-08-27T14:22:24.966Z,100723.16
2022-08-27T14:25:15.656Z,100717.97
2022-08-27T14:28:02.908Z,100726.84
2022-08-27T14:30:53.599Z,100728.50
2022-08-27T14:33:40.826Z,100717.75
2022-08-27T14:36:33.637Z,100725.66
2022-08-27T14:39:26.572Z,100720.22
2022-08-27T14:42:17.613Z,100719.75
2022-08-27T14:45:04.845Z,100712.09
2022-08-27T14:47:52.808Z,100711.50
2022-08-27T14:50:39.388Z,100705.91
2022-08-27T14:53:27.032Z,100713.34
2022-08-27T14:56:13.650Z,100713.09
2022-08-27T14:59:01.744Z,100710.81
2022-08-27T15:01:48.932Z,100703.66
2022-08-27T15:04:36.152Z,100706.91
2022-08-27T15:07:23.593Z,100704.69
2022-08-27T15:10:12.747Z,100701.63
2022-08-27T15:12:59.936Z,100709.34
2022-08-27T15:15:48.477Z,100706.16
2022-08-27T15:18:39.024Z,100710.50
2022-08-27T15:21:26.441Z,100705.25
2022-08-27T15:24:18.030Z,100712.03
2022-08-27T15:27:05.172Z,100715.25
2022-08-27T15:29:51.604Z,100716.50
2022-08-27T15:32:45.209Z,100715.38
2022-08-27T15:35:32.108Z,100716.28
2022-08-27T15:38:18.789Z,100720.75
2022-08-27T15:41:05.589Z,100717.91
2022-08-27T15:43:52.693Z,100711.13
2022-08-27T15:46:39.730Z,100716.66
2022-08-27T15:49:28.027Z,100715.44
2022-08-27T15:52:25.273Z,100710.16
2022-08-27T15:55:32.076Z,100715.72
2022-08-27T15:58:33.831Z,100714.34
2022-08-27T16:01:38.650Z,100709.34
2022-08-27T16:04:31.811Z,100724.59
2022-08-27T16:07:21.441Z,100726.84
2022-08-27T16:10:22.697Z,100725.28
2022-08-27T16:13:12.246Z,100719.28
2022-08-27T16:16:09.668Z,100718.22
2022-08-27T16:19:16.039Z,100716.16
2022-08-27T16:22:18.668Z,100722.97
2022-08-27T16:25:30.923Z,100729.44
2022-08-27T16:28:27.238Z,100729.75
2022-08-27T16:31:22.522Z,100735.22
2022-08-27T16:34:26.254Z,100744.69
2022-08-27T16:37:29.836Z,100737.19
2022-08-27T16:40:21.734Z,100740.56
2022-08-27T16:43:13.649Z,100732.47
2022-08-27T16:46:04.965Z,100739.13
2022-08-27T16:49:12.159Z,100753.25
2022-08-27T16:52:21.313Z,100755.22
2022-08-27T16:55:16.501Z,100747.50
2022-08-27T16:58:13.072Z,100748.47
2022-08-27T17:01:10.422Z,100736.19
2022-08-27T17:04:12.877Z,100749.09
2022-08-27T17:07:03.162Z,100745.63
2022-08-27T17:09:52.023Z,100751.22
2022-08-27T17:12:41.193Z,100755.28
2022-08-27T17:15:28.574Z,100759.81
2022-08-27T17:18:17.698Z,100762.13
2022-08-27T17:21:08.300Z,100770.69
2022-08-27T17:23:59.740Z,100756.22
2022-08-27T17:26:48.482Z,100769.72
2022-08-27T17:29:38.163Z,100773.84
2022-08-27T17:32:26.427Z,100773.38
2022-08-27T17:35:15.905Z,100772.38
2022-08-27T17:38:04.834Z,100775.69
2022-08-27T17:40:54.308Z,100792.47
2022-08-27T17:43:42.673Z,100796.16
2022-08-27T17:46:31.302Z,100802.47
2022-08-27T17:49:19.122Z,100803.69
2022-08-27T17:52:10.743Z,100816.44
2022-08-27T17:54:57.728Z,100809.06
2022-08-27T17:57:44.762Z,100816.91
2022-08-27T18:00:33.800Z,100822.41
2022-08-27T18:03:21.866Z,100827.63
2022-08-27T18:06:08.987Z,100820.94
2022-08-27T18:08:55.608Z,100832.47
2022-08-27T18:11:42.189Z,100837.75
2022-08-27T18:14:28.803Z,100837.97
2022-08-27T18:17:15.686Z,100847.28
2022-08-27T18:20:05.650Z,100847.06
2022-08-27T18:22:52.953Z,100847.75
2022-08-27T18:25:40.443Z,100841.56
2022-08-27T18:28:28.871Z,100844.94
2022-08-27T18:31:18.908Z,100849.25
2022-08-27T18:34:05.779Z,100857.75
2022-08-27T18:36:53.700Z,100852.91
2022-08-27T18:39:40.747Z,100854.53
2022-08-27T18:42:40.150Z,100861.13
2022-08-27T18:45:30.153Z,100851.53
2022-08-27T18:48:21.990Z,100858.84
2022-08-27T18:51:12.698Z,100857.13
2022-08-27T18:54:03.628Z,100858.19
2022-08-27T18:56:53.577Z,100854.75
2022-08-27T18:59:42.381Z,100858.41
2022-08-27T19:02:33.386Z,100857.44
2022-08-27T19:05:24.988Z,100864.66
2022-08-27T19:08:11.687Z,100867.09
2022-08-27T19:10:59.793Z,100867.69
2022-08-27T19:13:50.336Z,100875.72
2022-08-27T19:16:42.972Z,100875.63
2022-08-27T19:19:30.130Z,100881.31
2022-08-27T19:22:16.758Z,100882.16
2022-08-27T19:25:05.124Z,100888.72
2022-08-27T19:27:54.497Z,100893.78
2022-08-27T19:30:40.929Z,100899.59
2022-08-27T19:33:27.595Z,100901.31
2022-08-27T19:36:16.886Z,100895.63
2022-08-27T19:39:04.392Z,100893.88
2022-08-27T19:41:51.138Z,100897.13
2022-08-27T19:44:39.212Z,100899.72
2022-08-27T19:47:26.337Z,100896.13
2022-08-27T19:50:16.222Z,100900.13
2022-08-27T19:53:02.758Z,100893.34
2022-08-27T19:55:49.584Z,100899.38
2022-08-27T19:58:36.851Z,100893.69
2022-08-27T20:01:25.019Z,100898.50
2022-08-27T20:04:11.677Z,100892.81
2022-08-27T20:06:58.302Z,100894.09
2022-08-27T20:09:45.409Z,100902.47
2022-08-27T20:12:33.425Z,100903.34
2022-08-27T20:15:23.469Z,100897.97
2022-08-27T20:18:15.879Z,100890.75
2022-08-27T20:21:10.222Z,100901.63
2022-08-27T20:23:59.202Z,100903.25
2022-08-27T20:26:47.900Z,100889.34
2022-08-27T20:29:36.398Z,100896.13
2022-08-27T20:32:29.246Z,100889.56
2022-08-27T20:35:18.545Z,100907.84
2022-08-27T20:38:05.852Z,100906.03
2022-08-27T20:40:53.247Z,100897.31
2022-08-27T20:43:40.161Z,100905.50
2022-08-27T20:46:30.629Z,100899.50
2022-08-27T20:49:17.196Z,100895.16
2022-08-27T20:52:08.618Z,100908.72
2022-08-27T20:54:57.592Z,100910.34
2022-08-27T20:58:06.932Z,100913.34
2022-08-27T21:00:55.846Z,100909.56
2022-08-27T21:03:42.469Z,100914.50
2022-08-27T21:06:32.964Z,100915.38
2022-08-27T21:09:21.528Z,100910.00
2022-08-27T21:12:08.596Z,100912.13
2022-08-27T21:14:56.463Z,100911.19
2022-08-27T21:17:43.900Z,100922.06
2022-08-27T21:20:30.590Z,100926.03
2022-08-27T21:23:17.299Z,100928.06
2022-08-27T21:26:09.947Z,100925.28
2022-08-27T21:28:57.123Z,100921.28
2022-08-27T21:31:43.790Z,100923.31
2022-08-27T21:34:31.204Z,100919.69
2022-08-27T21:37:17.965Z,100917.50
2022-08-27T21:40:06.782Z,100922.78
2022-08-27T21:42:55.915Z,100923.03
2022-08-27T21:45:43.108Z,100917.66
2022-08-27T21:48:29.624Z,100914.41
2022-08-27T21:51:24.491Z,100911.41
2022-08-27T21:54:12.040Z,100916.13
2022-08-27T21:56:58.575Z,100918.38
2022-08-27T21:59:49.457Z,100911.19
2022-08-27T22:02:40.202Z,100911.59
2022-08-27T22:05:27.089Z,100915.47
2022-08-27T22:08:16.783Z,100902.50
2022-08-27T22:11:03.282Z,100910.31
2022-08-27T22:13:50.112Z,100911.59
2022-08-27T22:16:39.605Z,100911.50
2022-08-27T22:19:26.569Z,100905.25
2022-08-27T22:22:12.955Z,100912.47
2022-08-27T22:25:00.240Z,100902.00
2022-08-27T22:27:47.441Z,100917.09
2022-08-27T22:30:34.009Z,100907.97
2022-08-27T22:33:22.422Z,100911.72
2022-08-27T22:36:09.727Z,100910.75
2022-08-27T22:39:03.391Z,100906.53
2022-08-27T22:41:50.387Z,100906.31
2022-08-27T22:44:40.496Z,100907.97
2022-08-27T22:47:26.963Z,100905.81
2022-08-27T22:50:15.417Z,100903.22
2022-08-27T22:53:04.632Z,100904.84
2022-08-27T22:55:53.587Z,100906.00
2022-08-27T22:58:46.054Z,100895.50
2022-08-27T23:01:36.940Z,100897.44
2022-08-27T23:04:39.259Z,100897.44
2022-08-27T23:07:33.624Z,100901.81
2022-08-27T23:10:25.754Z,100903.44
2022-08-27T23:13:16.852Z,100898.97
2022-08-27T23:16:06.465Z,100912.53
2022-08-27T23:18:54.604Z,100908.22
2022-08-27T23:21:42.605Z,100902.19
2022-08-27T23:24:32.140Z,100912.53
2022-08-27T23:27:31.347Z,100903.69
2022-08-27T23:30:19.687Z,100897.06
2022-08-27T23:33:07.787Z,100880.19
2022-08-27T23:35:54.813Z,100893.09
2022-08-27T23:38:41.583Z,100894.19
2022-08-27T23:41:30.618Z,100898.25
2022-08-27T23:44:17.106Z,100894.06
2022-08-27T23:47:04.048Z,100896.22
2022-08-27T23:49:51.215Z,100898.78
2022-08-27T23:52:38.573Z,100897.47
2022-08-27T23:55:25.660Z,100900.81
2022-08-27T23:58:13.798Z,100903.41
